sensor_id;sensor_type;location;lat;lon;timestamp;pressure;altitude;pressure_sealevel;temperature;humidity
82931;BME280;72705;53.346;10.248;2023-12-14T00:00:44;100940.84;;;2.69;100.00
82931;BME280;72705;53.346;10.248;2023-12-14T00:03:12;100949.16;;;2.77;100.00
82931;BME280;72705;53.346;10.248;2023-12-14T00:05:38;100940.63;;;2.72;100.00
82931;BME280;72705;53.346;10.248;2023-12-14T00:08:03;100940.09;;;2.79;100.00
82931;BME280;72705;53.346;10.248;2023-12-14T00:10:29;100944.88;;;2.74;100.00
82931;BME280;72705;53.346;10.248;2023-12-14T00:12:54;100942.13;;;2.76;100.00
82931;BME280;72705;53.346;10.248;2023-12-14T00:15:20;100946.50;;;2.77;100.00
82931;BME280;72705;53.346;10.248;2023-12-14T00:17:46;100962.13;;;2.94;100.00
82931;BME280;72705;53.346;10.248;2023-12-14T00:20:12;100972.47;;;2.86;100.00
82931;BME280;72705;53.346;10.248;2023-12-14T00:22:37;100982.34;;;2.97;100.00
82931;BME280;72705;53.346;10.248;2023-12-14T00:25:04;100970.66;;;2.87;100.00
82931;BME280;72705;53.346;10.248;2023-12-14T00:27:29;100978.31;;;2.91;100.00
82931;BME280;72705;53.346;10.248;2023-12-14T00:29:54;100975.88;;;2.88;100.00
82931;BME280;72705;53.346;10.248;2023-12-14T00:32:20;100973.94;;;2.90;100.00
82931;BME280;72705;53.346;10.248;2023-12-14T00:34:45;100973.84;;;2.79;100.00
82931;BME280;72705;53.346;10.248;2023-12-14T00:37:11;100978.03;;;2.83;100.00
82931;BME280;72705;53.346;10.248;2023-12-14T00:39:36;100989.91;;;2.90;100.00
82931;BME280;72705;53.346;10.248;2023-12-14T00:42:02;100997.69;;;2.93;100.00
82931;BME280;72705;53.346;10.248;2023-12-14T00:44:27;100989.81;;;2.92;100.00
82931;BME280;72705;53.346;10.248;2023-12-14T00:46:52;100983.63;;;2.78;100.00
82931;BME280;72705;53.346;10.248;2023-12-14T00:49:18;101001.56;;;2.89;100.00
82931;BME280;72705;53.346;10.248;2023-12-14T00:51:44;101009.22;;;2.94;100.00
82931;BME280;72705;53.346;10.248;2023-12-14T00:54:10;101006.44;;;2.95;100.00
82931;BME280;72705;53.346;10.248;2023-12-14T00:56:35;101009.66;;;2.88;100.00
82931;BME280;72705;53.346;10.248;2023-12-14T00:59:01;101032.84;;;2.98;100.00
82931;BME280;72705;53.346;10.248;2023-12-14T01:01:26;101036.69;;;2.94;100.00
82931;BME280;72705;53.346;10.248;2023-12-14T01:03:51;101023.59;;;2.91;100.00
82931;BME280;72705;53.346;10.248;2023-12-14T01:06:18;101045.22;;;2.99;100.00
82931;BME280;72705;53.346;10.248;2023-12-14T01:08:43;101038.09;;;2.87;100.00
82931;BME280;72705;53.346;10.248;2023-12-14T01:11:08;101041.28;;;2.92;100.00
82931;BME280;72705;53.346;10.248;2023-12-14T01:13:34;101040.66;;;2.89;100.00
82931;BME280;72705;53.346;10.248;2023-12-14T01:16:00;101046.84;;;2.89;100.00
82931;BME280;72705;53.346;10.248;2023-12-14T01:18:25;101035.94;;;2.92;100.00
82931;BME280;72705;53.346;10.248;2023-12-14T01:20:50;101039.91;;;2.99;100.00
82931;BME280;72705;53.346;10.248;2023-12-14T01:23:16;101054.25;;;3.09;100.00
82931;BME280;72705;53.346;10.248;2023-12-14T01:25:41;101048.22;;;3.07;100.00
82931;BME280;72705;53.346;10.248;2023-12-14T01:28:06;101062.38;;;3.20;100.00
82931;BME280;72705;53.346;10.248;2023-12-14T01:30:36;101062.69;;;3.03;100.00
82931;BME280;72705;53.346;10.248;2023-12-14T01:33:02;101070.91;;;3.00;100.00
82931;BME280;72705;53.346;10.248;2023-12-14T01:35:27;101074.84;;;3.07;100.00
82931;BME280;72705;53.346;10.248;2023-12-14T01:37:55;101073.66;;;2.99;100.00
82931;BME280;72705;53.346;10.248;2023-12-14T01:40:20;101074.75;;;2.96;100.00
82931;BME280;72705;53.346;10.248;2023-12-14T01:42:45;101075.91;;;2.92;100.00
82931;BME280;72705;53.346;10.248;2023-12-14T01:45:11;101087.75;;;3.01;100.00
82931;BME280;72705;53.346;10.248;2023-12-14T01:47:38;101081.44;;;2.89;100.00
82931;BME280;72705;53.346;10.248;2023-12-14T01:50:04;101069.09;;;2.88;100.00
82931;BME280;72705;53.346;10.248;2023-12-14T01:52:31;101088.78;;;2.98;100.00
82931;BME280;72705;53.346;10.248;2023-12-14T01:54:57;101092.97;;;3.02;100.00
82931;BME280;72705;53.346;10.248;2023-12-14T01:57:24;101098.06;;;3.18;100.00
82931;BME280;72705;53.346;10.248;2023-12-14T01:59:49;101091.56;;;3.09;100.00
82931;BME280;72705;53.346;10.248;2023-12-14T02:02:15;101080.38;;;2.92;100.00
82931;BME280;72705;53.346;10.248;2023-12-14T02:04:40;101093.41;;;2.96;100.00
82931;BME280;72705;53.346;10.248;2023-12-14T02:07:05;101105.00;;;2.95;100.00
82931;BME280;72705;53.346;10.248;2023-12-14T02:09:31;101111.06;;;2.97;100.00
82931;BME280;72705;53.346;10.248;2023-12-14T02:11:56;101108.09;;;2.89;100.00
82931;BME280;72705;53.346;10.248;2023-12-14T02:14:22;101109.56;;;2.93;100.00
82931;BME280;72705;53.346;10.248;2023-12-14T02:16:48;101108.09;;;3.02;100.00
82931;BME280;72705;53.346;10.248;2023-12-14T02:19:14;101094.88;;;2.88;100.00
82931;BME280;72705;53.346;10.248;2023-12-14T02:21:39;101096.78;;;2.85;100.00
82931;BME280;72705;53.346;10.248;2023-12-14T02:24:05;101103.19;;;2.83;100.00
82931;BME280;72705;53.346;10.248;2023-12-14T02:26:30;101109.78;;;2.90;100.00
82931;BME280;72705;53.346;10.248;2023-12-14T02:28:55;101127.69;;;3.01;100.00
82931;BME280;72705;53.346;10.248;2023-12-14T02:31:22;101135.78;;;2.99;100.00
82931;BME280;72705;53.346;10.248;2023-12-14T02:33:48;101127.03;;;2.97;100.00
82931;BME280;72705;53.346;10.248;2023-12-14T02:36:13;101115.75;;;2.94;100.00
82931;BME280;72705;53.346;10.248;2023-12-14T02:38:38;101113.84;;;2.96;100.00
82931;BME280;72705;53.346;10.248;2023-12-14T02:41:04;101121.09;;;2.94;100.00
82931;BME280;72705;53.346;10.248;2023-12-14T02:43:29;101123.22;;;3.01;100.00
82931;BME280;72705;53.346;10.248;2023-12-14T02:45:55;101136.41;;;3.03;100.00
82931;BME280;72705;53.346;10.248;2023-12-14T02:48:26;101139.00;;;3.04;100.00
82931;BME280;72705;53.346;10.248;2023-12-14T02:50:51;101140.69;;;3.05;100.00
82931;BME280;72705;53.346;10.248;2023-12-14T02:53:17;101149.22;;;3.10;100.00
82931;BME280;72705;53.346;10.248;2023-12-14T02:55:42;101118.75;;;2.89;100.00
82931;BME280;72705;53.346;10.248;2023-12-14T02:58:07;101150.31;;;3.08;100.00
82931;BME280;72705;53.346;10.248;2023-12-14T03:00:33;101152.63;;;3.00;100.00
82931;BME280;72705;53.346;10.248;2023-12-14T03:02:59;101157.97;;;3.12;100.00
82931;BME280;72705;53.346;10.248;2023-12-14T03:05:24;101157.13;;;3.12;100.00
82931;BME280;72705;53.346;10.248;2023-12-14T03:07:50;101158.84;;;3.13;100.00
82931;BME280;72705;53.346;10.248;2023-12-14T03:10:15;101167.78;;;3.12;100.00
82931;BME280;72705;53.346;10.248;2023-12-14T03:12:41;101150.31;;;3.08;100.00
82931;BME280;72705;53.346;10.248;2023-12-14T03:15:06;101161.59;;;3.11;100.00
82931;BME280;72705;53.346;10.248;2023-12-14T03:17:32;101171.28;;;3.12;100.00
82931;BME280;72705;53.346;10.248;2023-12-14T03:19:57;101153.06;;;3.06;100.00
82931;BME280;72705;53.346;10.248;2023-12-14T03:22:22;101157.31;;;3.09;100.00
82931;BME280;72705;53.346;10.248;2023-12-14T03:24:48;101155.63;;;2.95;100.00
82931;BME280;72705;53.346;10.248;2023-12-14T03:27:13;101173.44;;;3.07;100.00
82931;BME280;72705;53.346;10.248;2023-12-14T03:29:39;101168.72;;;2.98;100.00
82931;BME280;72705;53.346;10.248;2023-12-14T03:32:05;101195.47;;;3.09;100.00
82931;BME280;72705;53.346;10.248;2023-12-14T03:34:30;101179.47;;;3.09;100.00
82931;BME280;72705;53.346;10.248;2023-12-14T03:36:55;101197.00;;;3.13;100.00
82931;BME280;72705;53.346;10.248;2023-12-14T03:39:21;101203.28;;;3.12;100.00
82931;BME280;72705;53.346;10.248;2023-12-14T03:41:46;101217.63;;;3.10;100.00
82931;BME280;72705;53.346;10.248;2023-12-14T03:44:12;101219.25;;;3.12;100.00
82931;BME280;72705;53.346;10.248;2023-12-14T03:46:37;101221.16;;;3.10;100.00
82931;BME280;72705;53.346;10.248;2023-12-14T03:49:03;101222.38;;;3.19;100.00
82931;BME280;72705;53.346;10.248;2023-12-14T03:51:29;101225.13;;;3.17;99.62
82931;BME280;72705;53.346;10.248;2023-12-14T03:53:54;101220.44;;;3.21;99.06
82931;BME280;72705;53.346;10.248;2023-12-14T03:56:19;101236.00;;;3.14;99.50
82931;BME280;72705;53.346;10.248;2023-12-14T03:58:45;101198.78;;;3.00;99.17
82931;BME280;72705;53.346;10.248;2023-12-14T04:01:17;101230.25;;;3.20;98.48
82931;BME280;72705;53.346;10.248;2023-12-14T04:03:43;101221.59;;;3.17;98.80
82931;BME280;72705;53.346;10.248;2023-12-14T04:06:08;101244.97;;;3.26;99.45
82931;BME280;72705;53.346;10.248;2023-12-14T04:08:34;101247.75;;;3.24;100.00
82931;BME280;72705;53.346;10.248;2023-12-14T04:10:59;101260.53;;;3.19;100.00
82931;BME280;72705;53.346;10.248;2023-12-14T04:13:24;101254.66;;;3.14;100.00
82931;BME280;72705;53.346;10.248;2023-12-14T04:15:50;101264.78;;;3.22;100.00
82931;BME280;72705;53.346;10.248;2023-12-14T04:18:15;101268.00;;;3.27;100.00
82931;BME280;72705;53.346;10.248;2023-12-14T04:20:42;101268.19;;;3.24;100.00
82931;BME280;72705;53.346;10.248;2023-12-14T04:23:07;101259.22;;;3.12;100.00
82931;BME280;72705;53.346;10.248;2023-12-14T04:25:32;101267.22;;;3.12;100.00
82931;BME280;72705;53.346;10.248;2023-12-14T04:27:58;101256.75;;;3.09;100.00
82931;BME280;72705;53.346;10.248;2023-12-14T04:30:23;101278.81;;;3.11;100.00
82931;BME280;72705;53.346;10.248;2023-12-14T04:32:49;101266.69;;;3.07;100.00
82931;BME280;72705;53.346;10.248;2023-12-14T04:35:15;101256.31;;;3.03;100.00
82931;BME280;72705;53.346;10.248;2023-12-14T04:37:41;101277.13;;;3.10;100.00
82931;BME280;72705;53.346;10.248;2023-12-14T04:40:07;101272.88;;;3.08;100.00
82931;BME280;72705;53.346;10.248;2023-12-14T04:42:32;101298.03;;;3.16;100.00
82931;BME280;72705;53.346;10.248;2023-12-14T04:44:58;101280.50;;;3.00;100.00
82931;BME280;72705;53.346;10.248;2023-12-14T04:47:24;101256.25;;;2.90;100.00
82931;BME280;72705;53.346;10.248;2023-12-14T04:49:49;101267.28;;;2.98;100.00
82931;BME280;72705;53.346;10.248;2023-12-14T04:52:14;101277.94;;;2.98;100.00
82931;BME280;72705;53.346;10.248;2023-12-14T04:54:40;101276.88;;;3.01;100.00
82931;BME280;72705;53.346;10.248;2023-12-14T04:57:07;101267.59;;;2.94;100.00
82931;BME280;72705;53.346;10.248;2023-12-14T04:59:32;101284.03;;;3.00;100.00
82931;BME280;72705;53.346;10.248;2023-12-14T05:01:58;101273.84;;;2.93;100.00
82931;BME280;72705;53.346;10.248;2023-12-14T05:04:23;101287.28;;;2.91;100.00
82931;BME280;72705;53.346;10.248;2023-12-14T05:06:48;101287.53;;;3.01;100.00
82931;BME280;72705;53.346;10.248;2023-12-14T05:09:14;101278.03;;;2.97;100.00
82931;BME280;72705;53.346;10.248;2023-12-14T05:11:40;101307.28;;;3.11;100.00
82931;BME280;72705;53.346;10.248;2023-12-14T05:14:06;101316.75;;;3.15;100.00
82931;BME280;72705;53.346;10.248;2023-12-14T05:16:31;101303.97;;;3.07;100.00
82931;BME280;72705;53.346;10.248;2023-12-14T05:18:56;101315.22;;;2.98;100.00
82931;BME280;72705;53.346;10.248;2023-12-14T05:21:22;101321.88;;;3.05;100.00
82931;BME280;72705;53.346;10.248;2023-12-14T05:23:48;101328.09;;;2.92;100.00
82931;BME280;72705;53.346;10.248;2023-12-14T05:26:14;101334.34;;;2.91;100.00
82931;BME280;72705;53.346;10.248;2023-12-14T05:28:40;101341.47;;;3.04;100.00
82931;BME280;72705;53.346;10.248;2023-12-14T05:31:06;101317.53;;;2.90;100.00
82931;BME280;72705;53.346;10.248;2023-12-14T05:33:36;101329.72;;;2.94;100.00
82931;BME280;72705;53.346;10.248;2023-12-14T05:36:02;101338.47;;;2.96;100.00
82931;BME280;72705;53.346;10.248;2023-12-14T05:38:28;101340.16;;;2.97;100.00
82931;BME280;72705;53.346;10.248;2023-12-14T05:40:54;101371.31;;;3.09;100.00
82931;BME280;72705;53.346;10.248;2023-12-14T05:43:20;101367.91;;;3.07;100.00
82931;BME280;72705;53.346;10.248;2023-12-14T05:45:45;101350.94;;;2.96;100.00
82931;BME280;72705;53.346;10.248;2023-12-14T05:48:11;101361.50;;;3.10;100.00
82931;BME280;72705;53.346;10.248;2023-12-14T05:50:36;101373.34;;;3.33;100.00
82931;BME280;72705;53.346;10.248;2023-12-14T05:53:21;101377.66;;;3.48;100.00
82931;BME280;72705;53.346;10.248;2023-12-14T05:55:46;101375.03;;;3.34;100.00
82931;BME280;72705;53.346;10.248;2023-12-14T05:58:12;101373.19;;;3.21;100.00
82931;BME280;72705;53.346;10.248;2023-12-14T06:00:38;101380.53;;;3.45;100.00
82931;BME280;72705;53.346;10.248;2023-12-14T06:03:05;101388.94;;;3.39;100.00
82931;BME280;72705;53.346;10.248;2023-12-14T06:05:30;101384.69;;;3.22;100.00
82931;BME280;72705;53.346;10.248;2023-12-14T06:07:56;101394.09;;;3.28;100.00
82931;BME280;72705;53.346;10.248;2023-12-14T06:10:21;101407.88;;;3.34;100.00
82931;BME280;72705;53.346;10.248;2023-12-14T06:12:50;101385.81;;;3.05;100.00
82931;BME280;72705;53.346;10.248;2023-12-14T06:15:15;101391.84;;;3.21;100.00
82931;BME280;72705;53.346;10.248;2023-12-14T06:17:41;101414.84;;;3.37;100.00
82931;BME280;72705;53.346;10.248;2023-12-14T06:20:08;101412.97;;;3.24;100.00
82931;BME280;72705;53.346;10.248;2023-12-14T06:22:37;101416.41;;;3.27;100.00
82931;BME280;72705;53.346;10.248;2023-12-14T06:25:03;101415.88;;;3.34;100.00
82931;BME280;72705;53.346;10.248;2023-12-14T06:27:29;101408.75;;;3.35;100.00
82931;BME280;72705;53.346;10.248;2023-12-14T06:29:54;101413.53;;;3.30;100.00
82931;BME280;72705;53.346;10.248;2023-12-14T06:32:20;101429.81;;;3.25;100.00
82931;BME280;72705;53.346;10.248;2023-12-14T06:34:45;101417.63;;;3.21;100.00
82931;BME280;72705;53.346;10.248;2023-12-14T06:37:11;101433.69;;;3.34;100.00
82931;BME280;72705;53.346;10.248;2023-12-14T06:39:37;101410.72;;;3.18;100.00
82931;BME280;72705;53.346;10.248;2023-12-14T06:42:13;101435.25;;;3.23;100.00
82931;BME280;72705;53.346;10.248;2023-12-14T06:44:39;101433.19;;;3.14;100.00
82931;BME280;72705;53.346;10.248;2023-12-14T06:47:04;101419.66;;;3.03;100.00
82931;BME280;72705;53.346;10.248;2023-12-14T06:49:30;101424.13;;;3.03;100.00
82931;BME280;72705;53.346;10.248;2023-12-14T06:51:55;101442.53;;;3.07;100.00
82931;BME280;72705;53.346;10.248;2023-12-14T06:54:20;101461.91;;;3.09;100.00
82931;BME280;72705;53.346;10.248;2023-12-14T06:56:45;101458.69;;;3.18;100.00
82931;BME280;72705;53.346;10.248;2023-12-14T06:59:11;101446.50;;;3.14;100.00
82931;BME280;72705;53.346;10.248;2023-12-14T07:01:36;101467.13;;;3.25;100.00
82931;BME280;72705;53.346;10.248;2023-12-14T07:04:11;101448.31;;;3.14;100.00
82931;BME280;72705;53.346;10.248;2023-12-14T07:06:36;101456.56;;;3.09;100.00
82931;BME280;72705;53.346;10.248;2023-12-14T07:09:01;101490.56;;;3.20;100.00
82931;BME280;72705;53.346;10.248;2023-12-14T07:11:27;101462.59;;;3.13;100.00
82931;BME280;72705;53.346;10.248;2023-12-14T07:13:52;101486.56;;;3.27;100.00
82931;BME280;72705;53.346;10.248;2023-12-14T07:16:18;101482.75;;;3.17;100.00
82931;BME280;72705;53.346;10.248;2023-12-14T07:18:49;101490.25;;;3.24;100.00
82931;BME280;72705;53.346;10.248;2023-12-14T07:21:14;101495.91;;;3.20;100.00
82931;BME280;72705;53.346;10.248;2023-12-14T07:23:43;101502.25;;;3.17;100.00
82931;BME280;72705;53.346;10.248;2023-12-14T07:26:08;101488.00;;;3.18;100.00
82931;BME280;72705;53.346;10.248;2023-12-14T07:28:34;101486.47;;;3.14;100.00
82931;BME280;72705;53.346;10.248;2023-12-14T07:30:59;101483.91;;;3.13;100.00
82931;BME280;72705;53.346;10.248;2023-12-14T07:33:25;101496.47;;;3.11;100.00
82931;BME280;72705;53.346;10.248;2023-12-14T07:35:50;101492.94;;;3.10;100.00
82931;BME280;72705;53.346;10.248;2023-12-14T07:38:15;101502.72;;;3.10;100.00
82931;BME280;72705;53.346;10.248;2023-12-14T07:40:43;101507.81;;;3.14;100.00
82931;BME280;72705;53.346;10.248;2023-12-14T07:43:08;101520.91;;;3.17;100.00
82931;BME280;72705;53.346;10.248;2023-12-14T07:45:34;101521.00;;;3.16;100.00
82931;BME280;72705;53.346;10.248;2023-12-14T07:47:59;101527.00;;;3.19;100.00
82931;BME280;72705;53.346;10.248;2023-12-14T07:50:25;101532.31;;;3.34;100.00
82931;BME280;72705;53.346;10.248;2023-12-14T07:52:51;101542.41;;;3.43;100.00
82931;BME280;72705;53.346;10.248;2023-12-14T07:55:18;101548.03;;;3.38;100.00
82931;BME280;72705;53.346;10.248;2023-12-14T07:57:43;101555.66;;;3.44;100.00
82931;BME280;72705;53.346;10.248;2023-12-14T08:00:09;101538.78;;;3.30;100.00
82931;BME280;72705;53.346;10.248;2023-12-14T08:02:35;101561.63;;;3.34;100.00
82931;BME280;72705;53.346;10.248;2023-12-14T08:05:01;101574.78;;;3.37;100.00
82931;BME280;72705;53.346;10.248;2023-12-14T08:07:26;101575.34;;;3.42;100.00
82931;BME280;72705;53.346;10.248;2023-12-14T08:09:57;101585.63;;;3.34;100.00
82931;BME280;72705;53.346;10.248;2023-12-14T08:12:23;101588.75;;;3.40;100.00
82931;BME280;72705;53.346;10.248;2023-12-14T08:14:50;101594.31;;;3.37;100.00
82931;BME280;72705;53.346;10.248;2023-12-14T08:17:15;101596.38;;;3.46;100.00
82931;BME280;72705;53.346;10.248;2023-12-14T08:19:41;101605.44;;;3.44;100.00
82931;BME280;72705;53.346;10.248;2023-12-14T08:22:13;101602.22;;;3.39;100.00
82931;BME280;72705;53.346;10.248;2023-12-14T08:24:42;101607.50;;;3.53;100.00
82931;BME280;72705;53.346;10.248;2023-12-14T08:27:07;101612.66;;;3.42;100.00
82931;BME280;72705;53.346;10.248;2023-12-14T08:29:33;101622.78;;;3.51;100.00
82931;BME280;72705;53.346;10.248;2023-12-14T08:32:02;101627.72;;;3.57;100.00
82931;BME280;72705;53.346;10.248;2023-12-14T08:34:28;101620.09;;;3.37;100.00
82931;BME280;72705;53.346;10.248;2023-12-14T08:37:00;101631.25;;;3.57;100.00
82931;BME280;72705;53.346;10.248;2023-12-14T08:39:25;101626.88;;;3.56;100.00
82931;BME280;72705;53.346;10.248;2023-12-14T08:41:53;101634.94;;;3.55;100.00
82931;BME280;72705;53.346;10.248;2023-12-14T08:44:18;101630.00;;;3.63;100.00
82931;BME280;72705;53.346;10.248;2023-12-14T08:46:45;101628.00;;;3.66;100.00
82931;BME280;72705;53.346;10.248;2023-12-14T08:49:13;101624.63;;;3.77;99.86
82931;BME280;72705;53.346;10.248;2023-12-14T08:51:39;101628.06;;;3.65;100.00
82931;BME280;72705;53.346;10.248;2023-12-14T08:54:05;101639.78;;;3.77;99.70
82931;BME280;72705;53.346;10.248;2023-12-14T08:56:31;101636.16;;;3.78;99.82
82931;BME280;72705;53.346;10.248;2023-12-14T08:58:56;101644.28;;;3.76;99.65
82931;BME280;72705;53.346;10.248;2023-12-14T09:01:23;101626.81;;;3.71;100.00
82931;BME280;72705;53.346;10.248;2023-12-14T09:03:48;101632.72;;;3.90;100.00
82931;BME280;72705;53.346;10.248;2023-12-14T09:06:16;101643.97;;;3.81;99.69
82931;BME280;72705;53.346;10.248;2023-12-14T09:08:42;101652.06;;;3.93;99.10
82931;BME280;72705;53.346;10.248;2023-12-14T09:11:07;101644.06;;;3.65;100.00
82931;BME280;72705;53.346;10.248;2023-12-14T09:13:33;101668.84;;;3.67;100.00
82931;BME280;72705;53.346;10.248;2023-12-14T09:15:59;101651.22;;;3.79;99.40
82931;BME280;72705;53.346;10.248;2023-12-14T09:18:27;101677.59;;;3.83;98.83
82931;BME280;72705;53.346;10.248;2023-12-14T09:20:52;101665.63;;;3.76;99.49
82931;BME280;72705;53.346;10.248;2023-12-14T09:23:18;101688.56;;;3.93;98.23
82931;BME280;72705;53.346;10.248;2023-12-14T09:25:44;101692.66;;;3.98;98.27
82931;BME280;72705;53.346;10.248;2023-12-14T09:28:10;101685.81;;;3.94;97.94
82931;BME280;72705;53.346;10.248;2023-12-14T09:30:35;101693.59;;;3.83;99.07
82931;BME280;72705;53.346;10.248;2023-12-14T09:33:01;101689.25;;;3.68;98.98
82931;BME280;72705;53.346;10.248;2023-12-14T09:35:26;101692.69;;;3.70;99.32
82931;BME280;72705;53.346;10.248;2023-12-14T09:37:51;101719.91;;;3.89;98.72
82931;BME280;72705;53.346;10.248;2023-12-14T09:40:18;101690.56;;;3.75;98.63
82931;BME280;72705;53.346;10.248;2023-12-14T09:42:44;101706.28;;;3.94;98.51
82931;BME280;72705;53.346;10.248;2023-12-14T09:45:11;101713.25;;;3.82;99.08
82931;BME280;72705;53.346;10.248;2023-12-14T09:47:37;101718.94;;;3.90;98.89
82931;BME280;72705;53.346;10.248;2023-12-14T09:50:04;101721.22;;;3.96;98.31
82931;BME280;72705;53.346;10.248;2023-12-14T09:52:30;101721.53;;;3.92;98.51
82931;BME280;72705;53.346;10.248;2023-12-14T09:55:04;101716.50;;;3.87;99.19
82931;BME280;72705;53.346;10.248;2023-12-14T09:57:30;101701.44;;;3.72;99.31
82931;BME280;72705;53.346;10.248;2023-12-14T09:59:55;101723.13;;;4.08;98.31
82931;BME280;72705;53.346;10.248;2023-12-14T10:02:27;101700.75;;;3.97;98.45
82931;BME280;72705;53.346;10.248;2023-12-14T10:04:53;101722.56;;;4.03;99.30
82931;BME280;72705;53.346;10.248;2023-12-14T10:07:19;101723.25;;;4.07;98.14
82931;BME280;72705;53.346;10.248;2023-12-14T10:09:45;101726.19;;;4.02;99.12
82931;BME280;72705;53.346;10.248;2023-12-14T10:12:11;101709.69;;;3.96;98.30
82931;BME280;72705;53.346;10.248;2023-12-14T10:14:37;101734.19;;;4.02;99.06
82931;BME280;72705;53.346;10.248;2023-12-14T10:17:19;101730.88;;;3.99;98.46
82931;BME280;72705;53.346;10.248;2023-12-14T10:19:46;101731.81;;;4.12;98.26
82931;BME280;72705;53.346;10.248;2023-12-14T10:22:16;101729.25;;;4.11;97.38
82931;BME280;72705;53.346;10.248;2023-12-14T10:24:49;101751.31;;;4.27;98.36
82931;BME280;72705;53.346;10.248;2023-12-14T10:27:15;101734.75;;;4.22;97.33
82931;BME280;72705;53.346;10.248;2023-12-14T10:29:41;101751.16;;;4.30;96.58
82931;BME280;72705;53.346;10.248;2023-12-14T10:32:07;101744.66;;;4.20;97.13
82931;BME280;72705;53.346;10.248;2023-12-14T10:34:37;101763.53;;;4.31;97.31
82931;BME280;72705;53.346;10.248;2023-12-14T10:37:05;101772.50;;;4.30;97.30
82931;BME280;72705;53.346;10.248;2023-12-14T10:39:33;101774.69;;;4.23;97.02
82931;BME280;72705;53.346;10.248;2023-12-14T10:42:02;101767.34;;;4.27;97.23
82931;BME280;72705;53.346;10.248;2023-12-14T10:44:28;101772.13;;;4.22;96.23
82931;BME280;72705;53.346;10.248;2023-12-14T10:46:55;101763.56;;;4.17;96.32
82931;BME280;72705;53.346;10.248;2023-12-14T10:49:23;101778.31;;;4.08;96.39
82931;BME280;72705;53.346;10.248;2023-12-14T10:51:50;101777.94;;;4.14;94.88
82931;BME280;72705;53.346;10.248;2023-12-14T10:54:17;101801.88;;;4.16;94.01
82931;BME280;72705;53.346;10.248;2023-12-14T10:56:43;101787.00;;;3.97;95.83
82931;BME280;72705;53.346;10.248;2023-12-14T10:59:08;101793.50;;;3.93;95.04
82931;BME280;72705;53.346;10.248;2023-12-14T11:01:35;101798.25;;;3.88;96.47
82931;BME280;72705;53.346;10.248;2023-12-14T11:04:06;101786.97;;;3.83;95.89
82931;BME280;72705;53.346;10.248;2023-12-14T11:06:33;101799.19;;;3.87;95.03
82931;BME280;72705;53.346;10.248;2023-12-14T11:09:05;101811.97;;;3.82;95.71
82931;BME280;72705;53.346;10.248;2023-12-14T11:14:24;101823.38;;;3.84;96.47
82931;BME280;72705;53.346;10.248;2023-12-14T11:16:54;101808.13;;;3.72;96.06
82931;BME280;72705;53.346;10.248;2023-12-14T11:19:25;101823.22;;;3.87;96.76
82931;BME280;72705;53.346;10.248;2023-12-14T11:24:22;101823.13;;;4.03;97.12
82931;BME280;72705;53.346;10.248;2023-12-14T11:26:51;101835.03;;;3.97;96.17
82931;BME280;72705;53.346;10.248;2023-12-14T11:29:19;101841.88;;;4.01;94.92
82931;BME280;72705;53.346;10.248;2023-12-14T11:31:46;101838.84;;;3.93;94.88
82931;BME280;72705;53.346;10.248;2023-12-14T11:34:13;101837.13;;;3.92;94.47
82931;BME280;72705;53.346;10.248;2023-12-14T11:36:40;101852.75;;;3.98;95.32
82931;BME280;72705;53.346;10.248;2023-12-14T11:39:07;101835.59;;;4.02;94.11
82931;BME280;72705;53.346;10.248;2023-12-14T11:41:33;101853.75;;;4.12;96.50
82931;BME280;72705;53.346;10.248;2023-12-14T11:43:59;101856.59;;;3.94;94.38
82931;BME280;72705;53.346;10.248;2023-12-14T11:46:25;101856.53;;;3.80;95.68
82931;BME280;72705;53.346;10.248;2023-12-14T11:48:50;101861.97;;;3.79;96.91
82931;BME280;72705;53.346;10.248;2023-12-14T11:51:19;101868.53;;;3.73;96.49
82931;BME280;72705;53.346;10.248;2023-12-14T11:53:46;101862.63;;;3.68;96.32
82931;BME280;72705;53.346;10.248;2023-12-14T11:56:11;101858.94;;;3.55;97.90
82931;BME280;72705;53.346;10.248;2023-12-14T11:58:40;101870.69;;;3.66;98.47
82931;BME280;72705;53.346;10.248;2023-12-14T12:01:16;101866.81;;;3.72;99.28
82931;BME280;72705;53.346;10.248;2023-12-14T12:03:42;101863.56;;;3.67;97.98
82931;BME280;72705;53.346;10.248;2023-12-14T12:06:24;101874.06;;;3.70;96.38
82931;BME280;72705;53.346;10.248;2023-12-14T12:08:53;101864.50;;;3.66;94.32
82931;BME280;72705;53.346;10.248;2023-12-14T12:11:20;101852.22;;;3.63;94.04
82931;BME280;72705;53.346;10.248;2023-12-14T12:13:57;101875.22;;;3.80;94.25
82931;BME280;72705;53.346;10.248;2023-12-14T12:16:22;101856.91;;;3.74;95.06
82931;BME280;72705;53.346;10.248;2023-12-14T12:18:48;101867.63;;;3.88;94.96
82931;BME280;72705;53.346;10.248;2023-12-14T12:21:13;101876.94;;;3.95;96.20
82931;BME280;72705;53.346;10.248;2023-12-14T12:23:39;101865.81;;;3.89;95.01
82931;BME280;72705;53.346;10.248;2023-12-14T12:26:06;101860.56;;;3.87;92.64
82931;BME280;72705;53.346;10.248;2023-12-14T12:28:32;101863.81;;;3.92;89.33
82931;BME280;72705;53.346;10.248;2023-12-14T12:30:57;101877.16;;;3.92;89.93
82931;BME280;72705;53.346;10.248;2023-12-14T12:33:24;101868.66;;;3.86;90.59
82931;BME280;72705;53.346;10.248;2023-12-14T12:35:54;101873.34;;;3.82;89.87
82931;BME280;72705;53.346;10.248;2023-12-14T12:38:19;101885.16;;;3.92;90.21
82931;BME280;72705;53.346;10.248;2023-12-14T12:40:45;101881.72;;;3.90;91.65
82931;BME280;72705;53.346;10.248;2023-12-14T12:43:11;101901.34;;;3.89;89.11